createdAt,value
2022-10-25T00:00:53.431Z,19.30
2022-10-25T00:03:21.531Z,19.30
2022-10-25T00:05:49.506Z,19.30
2022-10-25T00:08:18.993Z,19.30
2022-10-25T00:10:47.064Z,19.30
2022-10-25T00:13:15.114Z,19.30
2022-10-25T00:15:44.083Z,19.30
2022-10-25T00:18:12.012Z,19.20
2022-10-25T00:20:40.133Z,19.10
2022-10-25T00:23:08.112Z,19.10
2022-10-25T00:25:37.642Z,19.10
2022-10-25T00:28:05.754Z,19.10
2022-10-25T00:30:34.012Z,19.10
2022-10-25T00:33:02.055Z,19.20
2022-10-25T00:35:30.204Z,19.20
2022-10-25T00:37:58.332Z,19.10
2022-10-25T00:40:26.159Z,19.10
2022-10-25T00:42:55.712Z,19.10
2022-10-25T00:45:25.630Z,19.00
2022-10-25T00:48:00.033Z,19.00
2022-10-25T00:50:39.505Z,19.00
2022-10-25T00:53:11.038Z,19.00
2022-10-25T00:55:42.739Z,19.00
2022-10-25T00:58:15.272Z,18.90
2022-10-25T01:00:45.970Z,18.80
2022-10-25T01:03:15.199Z,18.70
2022-10-25T01:05:44.331Z,18.60
2022-10-25T01:08:12.909Z,18.70
2022-10-25T01:10:41.263Z,18.70
2022-10-25T01:13:09.135Z,18.60
2022-10-25T01:15:46.743Z,18.60
2022-10-25T01:18:22.059Z,18.70
2022-10-25T01:21:15.017Z,18.70
2022-10-25T01:24:09.932Z,18.70
2022-10-25T01:27:16.537Z,18.70
2022-10-25T01:33:05.954Z,18.60
2022-10-25T01:35:42.847Z,18.70
2022-10-25T01:38:25.954Z,18.60
2022-10-25T01:41:03.187Z,18.60
2022-10-25T01:43:39.264Z,18.60
2022-10-25T01:46:15.956Z,18.60
2022-10-25T01:48:49.144Z,18.60
2022-10-25T01:51:45.524Z,18.60
2022-10-25T01:54:19.682Z,18.50
2022-10-25T01:56:59.477Z,18.40
2022-10-25T01:59:50.450Z,18.40
2022-10-25T02:02:26.220Z,18.40
2022-10-25T02:05:04.282Z,18.40
2022-10-25T02:07:37.300Z,18.30
2022-10-25T02:10:08.774Z,18.30
2022-10-25T02:12:45.696Z,18.20
2022-10-25T02:15:19.483Z,18.20
2022-10-25T02:17:54.848Z,18.20
2022-10-25T02:20:27.011Z,18.10
2022-10-25T02:22:55.830Z,18.10
2022-10-25T02:25:23.911Z,18.10
2022-10-25T02:27:53.808Z,18.10
2022-10-25T02:30:22.175Z,18.10
2022-10-25T02:32:50.621Z,18.20
2022-10-25T02:35:19.642Z,18.20
2022-10-25T02:40:22.460Z,18.20
2022-10-25T02:45:23.967Z,18.20
2022-10-25T02:47:51.876Z,18.20
2022-10-25T02:50:19.771Z,18.10
2022-10-25T02:52:49.153Z,18.10
2022-10-25T02:55:17.508Z,18.10
2022-10-25T02:57:45.318Z,18.00
2022-10-25T03:00:14.686Z,18.00
2022-10-25T03:02:42.438Z,18.00
2022-10-25T03:05:10.615Z,18.00
2022-10-25T03:07:38.454Z,18.10
2022-10-25T03:10:10.103Z,18.10
2022-10-25T03:12:38.243Z,18.00
2022-10-25T03:15:07.258Z,17.90
2022-10-25T03:17:35.045Z,17.90
2022-10-25T03:20:02.840Z,17.90
2022-10-25T03:22:32.139Z,17.90
2022-10-25T03:24:59.939Z,18.00
2022-10-25T03:27:29.228Z,18.00
2022-10-25T03:29:56.998Z,18.00
2022-10-25T03:32:24.916Z,17.90
2022-10-25T03:37:25.506Z,18.10
2022-10-25T03:39:54.381Z,18.10
2022-10-25T03:42:22.096Z,18.00
2022-10-25T03:44:51.810Z,18.00
2022-10-25T03:47:19.840Z,18.00
2022-10-25T03:49:47.833Z,18.00
2022-10-25T03:52:15.636Z,18.00
2022-10-25T03:54:43.698Z,18.00
2022-10-25T03:57:11.588Z,18.00
2022-10-25T03:59:39.660Z,18.00
2022-10-25T04:02:09.545Z,18.00
2022-10-25T04:04:37.461Z,18.00
2022-10-25T04:07:05.318Z,17.90
2022-10-25T04:09:33.315Z,17.90
2022-10-25T04:12:01.688Z,17.90
2022-10-25T04:14:29.551Z,17.90
2022-10-25T04:16:57.404Z,17.90
2022-10-25T04:19:26.604Z,17.80
2022-10-25T04:24:23.003Z,17.80
2022-10-25T04:29:18.704Z,17.70
2022-10-25T04:31:46.468Z,17.70
2022-10-25T04:34:14.414Z,17.70
2022-10-25T04:36:43.725Z,17.80
2022-10-25T04:39:12.030Z,17.80
2022-10-25T04:41:40.037Z,17.80
2022-10-25T04:44:08.008Z,17.70
2022-10-25T04:46:36.110Z,17.70
2022-10-25T04:49:04.129Z,17.70
2022-10-25T04:51:32.278Z,17.70
2022-10-25T04:54:01.570Z,17.70
2022-10-25T04:56:30.100Z,17.80
2022-10-25T04:58:59.548Z,17.80
2022-10-25T05:01:27.669Z,17.80
2022-10-25T05:03:55.735Z,17.80
2022-10-25T05:06:26.722Z,17.70
2022-10-25T05:08:55.473Z,17.60
2022-10-25T05:11:26.136Z,17.60
2022-10-25T05:13:54.218Z,17.70
2022-10-25T05:16:24.754Z,17.70
2022-10-25T05:18:57.139Z,17.70
2022-10-25T05:21:31.547Z,17.80
2022-10-25T05:24:01.958Z,17.80
2022-10-25T05:26:32.229Z,17.70
2022-10-25T05:29:00.166Z,17.60
2022-10-25T05:31:29.634Z,17.60
2022-10-25T05:33:59.241Z,17.60
2022-10-25T05:36:29.663Z,17.50
2022-10-25T05:38:58.485Z,17.60
2022-10-25T05:41:26.264Z,17.60
2022-10-25T05:43:55.607Z,17.60
2022-10-25T05:46:24.543Z,17.60
2022-10-25T05:48:53.856Z,17.60
2022-10-25T05:51:39.342Z,17.70
2022-10-25T05:54:09.592Z,17.70
2022-10-25T05:56:37.782Z,17.70
2022-10-25T05:59:09.291Z,17.80
2022-10-25T06:01:38.522Z,17.80
2022-10-25T06:04:07.007Z,17.80
2022-10-25T06:06:35.852Z,17.80
2022-10-25T06:09:03.833Z,17.80
2022-10-25T06:11:33.516Z,17.80
2022-10-25T06:14:01.355Z,17.80
2022-10-25T06:16:30.934Z,17.80
2022-10-25T06:19:14.770Z,17.90
2022-10-25T06:21:42.778Z,18.00
2022-10-25T06:24:10.696Z,18.00
2022-10-25T06:26:38.430Z,18.00
2022-10-25T06:29:06.429Z,18.10
2022-10-25T06:31:35.640Z,18.10
2022-10-25T06:34:03.911Z,18.10
2022-10-25T06:36:32.103Z,18.20
2022-10-25T06:39:05.328Z,18.20
2022-10-25T06:41:37.266Z,18.10
2022-10-25T06:44:07.328Z,18.10
2022-10-25T06:47:04.403Z,18.10
2022-10-25T06:49:27.232Z,18.10
2022-10-25T06:51:56.519Z,18.10
2022-10-25T06:54:25.702Z,18.10
2022-10-25T06:56:53.422Z,18.10
2022-10-25T06:59:21.296Z,18.00
2022-10-25T07:01:50.887Z,18.10
2022-10-25T07:04:18.844Z,18.10
2022-10-25T07:06:49.971Z,18.20
2022-10-25T07:09:20.597Z,18.20
2022-10-25T07:11:48.449Z,18.30
2022-10-25T07:14:16.469Z,18.30
2022-10-25T07:16:44.181Z,18.30
2022-10-25T07:19:13.449Z,18.40
2022-10-25T07:21:41.220Z,18.30
2022-10-25T07:24:11.378Z,18.30
2022-10-25T07:26:40.580Z,18.40
2022-10-25T07:29:08.740Z,18.50
2022-10-25T07:31:38.456Z,18.50
2022-10-25T07:34:06.739Z,18.50
2022-10-25T07:36:36.177Z,18.60
2022-10-25T07:39:04.178Z,18.80
2022-10-25T07:41:31.994Z,18.90
2022-10-25T07:43:59.988Z,19.00
2022-10-25T07:46:27.772Z,19.10
2022-10-25T07:48:55.628Z,19.10
2022-10-25T07:51:23.436Z,19.20
2022-10-25T07:53:53.700Z,19.20
2022-10-25T07:56:23.660Z,19.30
2022-10-25T07:58:52.551Z,19.30
2022-10-25T08:01:22.464Z,19.40
2022-10-25T08:03:50.847Z,19.40
2022-10-25T08:06:19.229Z,19.50
2022-10-25T08:08:47.497Z,19.50
2022-10-25T08:11:17.209Z,19.50
2022-10-25T08:13:47.838Z,19.60
2022-10-25T08:16:15.806Z,19.60
2022-10-25T08:18:44.445Z,19.60
2022-10-25T08:23:45.404Z,19.80
2022-10-25T08:26:13.347Z,19.90
2022-10-25T08:28:43.010Z,20.00
2022-10-25T08:31:11.141Z,20.00
2022-10-25T08:33:39.278Z,20.00
2022-10-25T08:36:08.350Z,20.10
2022-10-25T08:38:36.467Z,20.20
2022-10-25T08:41:14.660Z,20.30
2022-10-25T08:44:18.950Z,20.40
2022-10-25T08:46:56.308Z,20.40
2022-10-25T08:49:29.448Z,20.60
2022-10-25T08:51:58.790Z,20.70
2022-10-25T08:54:30.058Z,20.90
2022-10-25T08:57:15.812Z,20.90
2022-10-25T08:59:48.957Z,21.10
2022-10-25T09:02:36.004Z,21.30
2022-10-25T09:05:04.738Z,21.50
2022-10-25T09:07:55.626Z,21.60
2022-10-25T09:10:33.899Z,21.70
2022-10-25T09:13:10.953Z,21.70
2022-10-25T09:16:09.708Z,21.70
2022-10-25T09:18:57.440Z,21.70
2022-10-25T09:21:37.451Z,21.80
2022-10-25T09:24:14.080Z,21.80
2022-10-25T09:26:42.891Z,21.90
2022-10-25T09:29:20.541Z,22.00
2022-10-25T09:31:52.244Z,22.10
2022-10-25T09:34:23.889Z,22.20
2022-10-25T09:36:57.943Z,22.30
2022-10-25T09:39:34.298Z,22.30
2022-10-25T09:42:04.062Z,22.30
2022-10-25T09:44:39.523Z,22.40
2022-10-25T09:47:21.421Z,22.60
2022-10-25T09:49:56.904Z,22.70
2022-10-25T09:52:31.993Z,22.90
2022-10-25T09:55:16.445Z,23.00
2022-10-25T09:57:46.763Z,23.20
2022-10-25T10:00:16.060Z,23.40
2022-10-25T10:02:44.300Z,23.40
2022-10-25T10:05:18.841Z,23.50
2022-10-25T10:07:47.687Z,23.60
2022-10-25T10:10:18.791Z,23.70
2022-10-25T10:12:52.644Z,23.80
2022-10-25T10:15:25.571Z,23.80
2022-10-25T10:18:26.072Z,23.80
2022-10-25T10:21:08.493Z,23.90
2022-10-25T10:23:44.913Z,23.90
2022-10-25T10:26:15.171Z,23.90
2022-10-25T10:28:46.411Z,24.10
2022-10-25T10:31:14.773Z,24.30
2022-10-25T10:33:49.362Z,24.40
2022-10-25T10:36:27.630Z,24.30
2022-10-25T10:39:13.580Z,24.40
2022-10-25T10:42:01.151Z,24.50
2022-10-25T10:44:30.513Z,24.40
2022-10-25T10:46:58.489Z,24.40
2022-10-25T10:49:34.997Z,24.40
2022-10-25T10:52:04.586Z,24.50
2022-10-25T10:54:35.423Z,24.60
2022-10-25T10:57:05.924Z,24.70
2022-10-25T10:59:40.845Z,24.70
2022-10-25T11:02:35.366Z,24.80
2022-10-25T11:05:03.410Z,24.90
2022-10-25T11:07:35.404Z,24.90
2022-10-25T11:10:25.031Z,24.90
2022-10-25T11:13:20.863Z,24.80
2022-10-25T11:16:28.164Z,24.80
2022-10-25T11:19:15.311Z,24.70
2022-10-25T11:22:11.347Z,24.50
2022-10-25T11:24:53.922Z,24.30
2022-10-25T11:27:35.001Z,24.30
2022-10-25T11:30:14.579Z,24.30
2022-10-25T11:33:21.780Z,24.30
2022-10-25T11:36:11.732Z,24.30
2022-10-25T11:38:53.062Z,24.40
2022-10-25T11:41:34.662Z,24.40
2022-10-25T11:44:30.951Z,24.40
2022-10-25T11:47:07.695Z,24.40
2022-10-25T11:50:12.202Z,24.30
2022-10-25T11:53:16.893Z,24.20
2022-10-25T11:55:49.943Z,24.20
2022-10-25T11:58:34.200Z,24.20
2022-10-25T12:01:15.065Z,24.30
2022-10-25T12:04:00.370Z,24.60
2022-10-25T12:06:37.739Z,24.60
2022-10-25T12:09:12.311Z,24.60
2022-10-25T12:11:45.541Z,24.70
2022-10-25T12:14:20.234Z,24.80
2022-10-25T12:16:48.441Z,24.90
2022-10-25T12:19:23.310Z,25.00
2022-10-25T12:21:56.779Z,25.00
2022-10-25T12:24:34.461Z,25.00
2022-10-25T12:27:03.323Z,25.00
2022-10-25T12:29:36.572Z,25.00
2022-10-25T12:32:12.281Z,25.20
2022-10-25T12:34:44.052Z,25.20
2022-10-25T12:37:19.789Z,25.10
2022-10-25T12:39:48.108Z,25.00
2022-10-25T12:42:20.762Z,25.00
2022-10-25T12:45:27.176Z,25.00
2022-10-25T12:48:09.044Z,25.30
2022-10-25T12:50:57.959Z,25.60
2022-10-25T12:53:59.192Z,25.70
2022-10-25T12:56:41.880Z,25.90
2022-10-25T12:59:21.258Z,26.10
2022-10-25T13:02:08.554Z,26.00
2022-10-25T13:05:02.539Z,26.00
2022-10-25T13:07:32.008Z,26.10
2022-10-25T13:10:05.607Z,26.20
2022-10-25T13:12:33.992Z,26.10
2022-10-25T13:15:02.670Z,25.90
2022-10-25T13:18:01.668Z,25.70
2022-10-25T13:20:48.385Z,25.80
2022-10-25T13:23:59.843Z,25.90
2022-10-25T13:26:33.970Z,26.00
2022-10-25T13:29:04.165Z,26.00
2022-10-25T13:31:47.020Z,25.90
2022-10-25T13:34:40.296Z,26.10
2022-10-25T13:37:42.024Z,26.40
2022-10-25T13:40:27.494Z,26.60
2022-10-25T13:43:02.392Z,26.80
2022-10-25T13:45:39.395Z,26.80
2022-10-25T13:48:35.205Z,26.70
2022-10-25T13:51:11.625Z,26.50
2022-10-25T13:53:41.300Z,26.50
2022-10-25T13:56:14.097Z,26.50
2022-10-25T13:58:45.439Z,26.50
2022-10-25T14:02:17.630Z,26.60
2022-10-25T14:04:45.668Z,26.70
2022-10-25T14:07:46.554Z,26.70
2022-10-25T14:10:27.977Z,26.80
2022-10-25T14:13:08.554Z,26.80
2022-10-25T14:15:47.797Z,26.80
2022-10-25T14:18:20.853Z,26.70
2022-10-25T14:20:53.377Z,26.40
2022-10-25T14:23:24.984Z,26.20
2022-10-25T14:25:56.609Z,26.10
2022-10-25T14:28:26.554Z,25.90
2022-10-25T14:30:56.785Z,25.90
2022-10-25T14:33:27.483Z,25.80
2022-10-25T14:35:58.057Z,25.80
2022-10-25T14:38:28.599Z,25.90
2022-10-25T14:40:58.571Z,26.00
2022-10-25T14:43:31.323Z,26.00
2022-10-25T14:46:01.855Z,26.00
2022-10-25T14:48:30.546Z,26.10
2022-10-25T14:51:01.230Z,26.10
2022-10-25T14:53:31.037Z,26.10
2022-10-25T14:56:01.314Z,26.10
2022-10-25T14:58:41.704Z,26.10
2022-10-25T15:01:12.666Z,26.10
2022-10-25T15:03:43.548Z,26.10
2022-10-25T15:06:13.716Z,25.90
2022-10-25T15:08:49.185Z,25.70
2022-10-25T15:11:20.689Z,25.50
2022-10-25T15:13:50.194Z,25.40
2022-10-25T15:16:35.507Z,25.80
2022-10-25T15:19:18.272Z,25.80
2022-10-25T15:21:49.009Z,25.70
2022-10-25T15:24:20.800Z,26.40
2022-10-25T15:26:53.608Z,27.00
2022-10-25T15:29:45.448Z,26.80
2022-10-25T15:32:16.749Z,26.20
2022-10-25T15:34:51.945Z,25.80
2022-10-25T15:37:21.786Z,25.70
2022-10-25T15:39:53.191Z,25.60
2022-10-25T15:42:21.911Z,25.50
2022-10-25T15:44:50.308Z,25.40
2022-10-25T15:47:37.916Z,25.30
2022-10-25T15:50:14.514Z,25.20
2022-10-25T15:52:42.865Z,25.10
2022-10-25T15:55:19.715Z,24.90
2022-10-25T15:57:48.215Z,24.80
2022-10-25T16:00:17.304Z,24.70
2022-10-25T16:02:46.278Z,24.60
2022-10-25T16:05:20.334Z,24.50
2022-10-25T16:07:48.548Z,24.40
2022-10-25T16:10:18.544Z,24.30
2022-10-25T16:12:49.655Z,24.20
2022-10-25T16:15:19.237Z,24.10
2022-10-25T16:17:50.494Z,24.00
2022-10-25T16:20:21.175Z,24.00
2022-10-25T16:22:50.251Z,23.90
2022-10-25T16:25:20.534Z,23.80
2022-10-25T16:27:49.118Z,23.70
2022-10-25T16:30:19.566Z,23.60
2022-10-25T16:32:47.804Z,23.60
2022-10-25T16:35:16.527Z,23.50
2022-10-25T16:37:44.770Z,23.40
2022-10-25T16:40:16.262Z,23.30
2022-10-25T16:42:46.632Z,23.20
2022-10-25T16:45:19.617Z,23.20
2022-10-25T16:47:48.755Z,23.20
2022-10-25T16:50:23.307Z,23.10
2022-10-25T16:52:51.464Z,23.10
2022-10-25T16:55:19.565Z,23.10
2022-10-25T17:00:25.900Z,23.00
2022-10-25T17:02:54.639Z,22.80
2022-10-25T17:05:24.768Z,22.80
2022-10-25T17:07:53.020Z,22.70
2022-10-25T17:10:22.590Z,22.70
2022-10-25T17:12:53.649Z,22.60
2022-10-25T17:15:22.980Z,22.60
2022-10-25T17:17:51.192Z,22.50
2022-10-25T17:20:19.562Z,22.50
2022-10-25T17:22:49.183Z,22.50
2022-10-25T17:25:17.498Z,22.50
2022-10-25T17:27:48.120Z,22.40
2022-10-25T17:30:18.505Z,22.40
2022-10-25T17:32:47.429Z,22.50
2022-10-25T17:35:15.317Z,22.50
2022-10-25T17:37:44.585Z,22.50
2022-10-25T17:40:16.629Z,22.50
2022-10-25T17:42:45.191Z,22.40
2022-10-25T17:45:13.269Z,22.30
2022-10-25T17:47:43.308Z,22.30
2022-10-25T17:50:13.114Z,22.20
2022-10-25T17:52:42.480Z,22.20
2022-10-25T17:55:11.577Z,22.20
2022-10-25T17:57:39.454Z,22.10
2022-10-25T18:00:08.847Z,22.10
2022-10-25T18:02:50.798Z,22.00
2022-10-25T18:05:21.149Z,22.00
2022-10-25T18:07:50.424Z,21.90
2022-10-25T18:10:18.840Z,21.90
2022-10-25T18:12:47.159Z,21.80
2022-10-25T18:15:15.370Z,21.80
2022-10-25T18:17:46.978Z,21.80
2022-10-25T18:20:15.969Z,21.80
2022-10-25T18:22:44.256Z,21.80
2022-10-25T18:25:12.508Z,21.80
2022-10-25T18:27:40.791Z,21.70
2022-10-25T18:30:16.228Z,21.80
2022-10-25T18:32:46.362Z,21.80
2022-10-25T18:37:42.131Z,21.80
2022-10-25T18:40:15.352Z,21.80
2022-10-25T18:42:43.525Z,21.70
2022-10-25T18:45:11.553Z,21.60
2022-10-25T18:47:41.040Z,21.60
2022-10-25T18:50:10.721Z,21.70
2022-10-25T18:52:38.830Z,21.70
2022-10-25T18:55:06.930Z,21.60
2022-10-25T18:57:35.074Z,21.60
2022-10-25T19:00:03.000Z,21.60
2022-10-25T19:02:35.375Z,21.60
2022-10-25T19:07:42.941Z,21.50
2022-10-25T19:10:11.083Z,21.40
2022-10-25T19:12:39.058Z,21.40
2022-10-25T19:15:08.088Z,21.30
2022-10-25T19:17:36.168Z,21.30
2022-10-25T19:20:05.001Z,21.30
2022-10-25T19:22:33.420Z,21.30
2022-10-25T19:25:02.997Z,21.40
2022-10-25T19:27:31.377Z,21.30
2022-10-25T19:29:59.626Z,21.20
2022-10-25T19:32:31.000Z,21.20
2022-10-25T19:34:59.210Z,21.20
2022-10-25T19:37:27.437Z,21.20
2022-10-25T19:39:58.183Z,21.10
2022-10-25T19:42:29.066Z,21.00
2022-10-25T19:47:26.133Z,20.90
2022-10-25T19:49:54.375Z,20.80
2022-10-25T19:52:22.751Z,20.70
2022-10-25T19:54:50.907Z,20.70
2022-10-25T19:57:18.960Z,20.80
2022-10-25T19:59:48.621Z,20.80
2022-10-25T20:02:16.947Z,20.70
2022-10-25T20:04:45.222Z,20.70
2022-10-25T20:07:28.193Z,20.70
2022-10-25T20:09:56.442Z,20.80
2022-10-25T20:12:24.632Z,20.80
2022-10-25T20:14:54.400Z,20.80
2022-10-25T20:17:22.581Z,20.80
2022-10-25T20:19:50.992Z,20.90
2022-10-25T20:22:19.182Z,20.90
2022-10-25T20:24:47.811Z,20.70
2022-10-25T20:27:16.059Z,20.60
2022-10-25T20:29:47.332Z,20.60
2022-10-25T20:32:17.831Z,20.50
2022-10-25T20:34:46.291Z,20.50
2022-10-25T20:37:14.522Z,20.50
2022-10-25T20:39:43.221Z,20.50
2022-10-25T20:42:14.282Z,20.50
2022-10-25T20:44:51.043Z,20.50
2022-10-25T20:47:21.003Z,20.40
2022-10-25T20:49:49.165Z,20.40
2022-10-25T20:52:17.586Z,20.40
2022-10-25T20:54:46.780Z,20.40
2022-10-25T20:57:16.369Z,20.30
2022-10-25T20:59:44.483Z,20.30
2022-10-25T21:02:15.219Z,20.30
2022-10-25T21:04:53.296Z,20.30
2022-10-25T21:07:22.234Z,20.20
2022-10-25T21:09:50.575Z,20.30
2022-10-25T21:12:28.842Z,20.20
2022-10-25T21:14:56.925Z,20.20
2022-10-25T21:17:25.732Z,20.10
2022-10-25T21:19:55.442Z,20.10
2022-10-25T21:22:23.524Z,20.10
2022-10-25T21:24:51.643Z,20.20
2022-10-25T21:27:19.718Z,20.10
2022-10-25T21:29:48.292Z,20.00
2022-10-25T21:32:16.260Z,20.00
2022-10-25T21:34:44.275Z,20.00
2022-10-25T21:37:14.316Z,20.00
2022-10-25T21:39:43.679Z,20.00
2022-10-25T21:42:11.873Z,19.90
2022-10-25T21:44:40.421Z,19.90
2022-10-25T21:47:08.672Z,19.90
2022-10-25T21:49:36.843Z,19.90
2022-10-25T21:52:05.240Z,19.90
2022-10-25T21:54:35.391Z,19.90
2022-10-25T21:57:03.570Z,19.90
2022-10-25T21:59:32.201Z,19.80
2022-10-25T22:02:00.429Z,19.80
2022-10-25T22:04:28.771Z,19.70
2022-10-25T22:06:57.153Z,19.60
2022-10-25T22:09:25.369Z,19.60
2022-10-25T22:11:55.483Z,19.40
2022-10-25T22:14:24.705Z,19.50
2022-10-25T22:16:52.729Z,19.50
2022-10-25T22:21:55.427Z,19.40
2022-10-25T22:24:23.307Z,19.40
2022-10-25T22:26:51.659Z,19.40
2022-10-25T22:29:21.309Z,19.40
2022-10-25T22:31:49.579Z,19.40
2022-10-25T22:34:17.891Z,19.40
2022-10-25T22:36:45.840Z,19.40
2022-10-25T22:39:16.840Z,19.40
2022-10-25T22:41:46.382Z,19.40
2022-10-25T22:44:14.536Z,19.40
2022-10-25T22:46:43.963Z,19.30
2022-10-25T22:49:12.100Z,19.40
2022-10-25T22:51:40.201Z,19.50
2022-10-25T22:54:08.500Z,19.50
2022-10-25T22:56:36.591Z,19.40
2022-10-25T22:59:06.543Z,19.40
2022-10-25T23:01:35.685Z,19.40
2022-10-25T23:04:07.279Z,19.30
2022-10-25T23:06:37.152Z,19.30
2022-10-25T23:09:07.095Z,19.30
2022-10-25T23:11:38.889Z,19.30
2022-10-25T23:14:14.844Z,19.40
2022-10-25T23:16:45.708Z,19.40
2022-10-25T23:19:15.349Z,19.40
2022-10-25T23:21:43.314Z,19.40
2022-10-25T23:24:11.551Z,19.40
2022-10-25T23:26:39.623Z,19.40
2022-10-25T23:29:07.712Z,19.30
2022-10-25T23:31:36.822Z,19.30
2022-10-25T23:34:04.932Z,19.30
2022-10-25T23:36:37.937Z,19.30
2022-10-25T23:39:08.431Z,19.30
2022-10-25T23:41:36.891Z,19.20
2022-10-25T23:44:05.387Z,19.20
2022-10-25T23:46:33.306Z,19.20
2022-10-25T23:49:01.307Z,19.20
2022-10-25T23:51:29.103Z,19.20
2022-10-25T23:53:58.581Z,19.20
2022-10-25T23:56:26.603Z,19.20
2022-10-25T23:58:54.540Z,19.20
